KCVOKORS

Guest
Details From KCVO - CORVALLIS MUNI
To KORS - Orcas Island
Flight Number -
Tags generated
Created
Modified
Stats Distance 255 nm / 472 km
Max Altitude 21,300 ft / 6,492 m
Waypoints 4
Social Downloads 1
Likes 0
Share VATSIM

Download

Looking for another format? Having issues loading an existing format? Contact us
Advertisement - Login to hide

Notes

Basic altitude profile: - Ascent Rate: 2500ft/min - Ascent Speed: 250kts - Cruise Altitude: 35000ft - Cruise Speed: 420kts - Descent Rate: 1500ft/min - Descent Speed: 250kts Options: - Use NATs: yes - Use PACOTS: yes - Use low airways: no - Use high airways: yes

Route

KCVO UBG J126 OLM KORS

ID Type Via Altitude Latitude Longitude Leg Dist Tot Dist Heading (true) Name
O KCVO APT - 0 ft / 0 m 44.49768˚ -123.28855˚ - 0 nm - CORVALLIS MUNI
UBG VOR - 17,900 ft / 5,456 m 45.35322˚ -122.97817˚ 53 nm 53 nm 14° / 15° NEWBERG VOR-DME
OLM VOR J126 (AWY-HI) 21,300 ft / 6,492 m 46.97164˚ -122.90183˚ 97 nm 150 nm 2° / 2° OLYMPIA VORTAC
O KORS APT - 0 ft / 0 m 48.70832˚ -122.91061˚ 104 nm 254 nm 360° / 360° Orcas Island

Altitude Profile

Advertisement - Login to hide

Weather


0- 5 10 15 20 25 30 35+ Temperature / ° C

Clouds and Precipitation
Forecast for 2017-12-13 00:00 UTC. Updated an hour ago

Ground ~20,000 ft ~40,000 ft Winds

KCVO

Details ICAO KCVO
Name CORVALLIS MUNI
Region United States
Timezone America/Los_Angeles (UTC-8.0)
Stats Elevation 246 ft / 75 m (AMSL)
Location 44.497677° -123.288546°
Runways 2
Magnetic Variation 15.153° E

METAR

KCVO 122156Z AUTO 00000KT 10SM CLR 03/M01 A3042 RMK AO2 SLP306 T00331011

Decode

TAF

Not found

Departure Runways

ID Width Length Bearing (true) Bearing (mag) Surface Threshold Offset Overrun Length
09 75 ft / 23 m 3,540 ft / 1,079 m 112.18° 97.03° Asphalt 0 ft / 0 m 364 ft / 111 m
17 151 ft / 46 m 5,904 ft / 1,799 m 187.16° 172.01° Asphalt 0 ft / 0 m 0 ft / 0 m
27 75 ft / 23 m 3,540 ft / 1,079 m 292.19° 277.04° Asphalt 0 ft / 0 m 0 ft / 0 m
35 151 ft / 46 m 5,904 ft / 1,799 m 7.16° 352.01° Asphalt 0 ft / 0 m 197 ft / 60 m

KORS

Details ICAO KORS (ESD)
Name Orcas Island
Region United States
Timezone America/Los_Angeles (UTC-8.0)
Stats Elevation 25 ft / 8 m (AMSL)
Location 48.708318° -122.910606°
Runways 1
Magnetic Variation 16.099° E

METAR

KORS 122155Z AUTO 34005KT 10SM CLR 08/05 A3044 RMK AO2

Decode

TAF

Not found

Destination Runways

ID Width Length Bearing (true) Bearing (mag) Surface Threshold Offset Overrun Length
16 59 ft / 18 m 2,895 ft / 882 m 180.23° 164.13° Asphalt 0 ft / 0 m 240 ft / 73 m
34 59 ft / 18 m 2,895 ft / 882 m 0.23° 344.13° Asphalt 0 ft / 0 m 259 ft / 79 m